Time;durP1;ratioP1;P1;durP2;ratioP2;P2;SDS_P1;SDS_P2;PMS_P1;PMS_P2;Temp;Humidity;BMP_temperature;BMP_pressure;BME280_temperature;BME280_humidity;BME280_pressure;Samples;Min_cycle;Max_cycle;Signal;HPM_P1;HPM_P2
2021/09/06 00:01:26;;;;;;;20.68;9.45;;;;;;;7.38;81.14;95470.74;1642805;86;21234;-59
2021/09/06 00:03:53;;;;;;;12.75;8.48;;;;;;;7.27;81.45;95466.00;1656481;86;21035;-60
2021/09/06 00:06:21;;;;;;;12.60;7.30;;;;;;;7.25;81.79;95467.01;1599835;88;21036;-60
2021/09/06 00:08:49;;;;;;;13.88;7.47;;;;;;;7.22;81.86;95468.41;1582121;89;20998;-60
2021/09/06 00:11:16;;;;;;;13.18;6.78;;;;;;;7.17;81.99;95466.13;1605302;88;20998;-60
2021/09/06 00:13:45;;;;;;;10.88;6.55;;;;;;;7.14;82.27;95463.59;1581459;89;21074;-59
2021/09/06 00:16:12;;;;;;;11.18;5.95;;;;;;;7.14;82.20;95463.59;1579287;88;20978;-59
2021/09/06 00:18:39;;;;;;;7.78;6.05;;;;;;;7.16;82.24;95466.70;1642465;86;20978;-60
2021/09/06 00:21:06;;;;;;;12.23;6.55;;;;;;;7.12;82.23;95461.11;1595639;88;21022;-59
2021/09/06 00:23:35;;;;;;;9.23;5.95;;;;;;;7.05;82.16;95463.14;1592623;89;21151;-60
2021/09/06 00:26:04;;;;;;;9.70;5.75;;;;;;;7.03;82.50;95465.51;1607907;88;21241;-60
2021/09/06 00:28:32;;;;;;;10.63;5.90;;;;;;;7.03;82.66;95472.34;1634123;86;21112;-60
2021/09/06 00:31:00;;;;;;;9.75;6.75;;;;;;;7.06;82.86;95470.16;1610421;88;21075;-60
2021/09/06 00:33:29;;;;;;;10.65;7.40;;;;;;;7.08;82.83;95474.81;1645113;86;21007;-59
2021/09/06 00:35:57;;;;;;;10.63;7.53;;;;;;;7.08;82.84;95469.16;1604528;88;21094;-60
2021/09/06 00:38:25;;;;;;;11.15;7.30;;;;;;;7.05;82.96;95474.08;1631378;86;20966;-59
2021/09/06 00:40:53;;;;;;;9.55;6.80;;;;;;;7.03;82.97;95475.08;1617401;88;21229;-59
2021/09/06 00:43:19;;;;;;;18.27;6.08;;;;;;;7.01;82.80;95470.58;1613344;86;21090;-60
2021/09/06 00:45:48;;;;;;;9.50;5.80;;;;;;;6.94;82.68;95470.66;1600673;88;21096;-58
2021/09/06 00:48:18;;;;;;;7.78;6.67;;;;;;;6.87;82.66;95460.56;1631817;86;21022;-59
2021/09/06 00:50:48;;;;;;;8.08;6.22;;;;;;;6.87;82.64;95463.91;1599823;88;21051;-59
2021/09/06 00:53:15;;;;;;;9.65;6.62;;;;;;;6.91;82.48;95466.02;1636457;86;21537;-59
2021/09/06 00:55:44;;;;;;;13.53;6.53;;;;;;;6.91;82.17;95466.02;1624160;88;21078;-60
2021/09/06 00:58:11;;;;;;;11.57;6.45;;;;;;;6.91;81.98;95459.17;1645714;86;21034;-59
2021/09/06 01:00:40;;;;;;;14.03;6.62;;;;;;;6.91;82.00;95461.30;1583461;88;20994;-60
2021/09/06 01:03:07;;;;;;;9.53;5.80;;;;;;;6.95;81.86;95453.86;1635511;86;21162;-60
2021/09/06 01:05:36;;;;;;;8.90;6.55;;;;;;;6.99;81.97;95459.27;1641967;86;21039;-60
2021/09/06 01:08:22;;;;;;;10.38;7.03;;;;;;;7.03;81.70;95462.77;1618118;88;20971;-59
2021/09/06 01:10:50;;;;;;;9.83;6.70;;;;;;;7.02;81.55;95455.14;1583494;89;21004;-61
2021/09/06 01:13:36;;;;;;;7.80;6.65;;;;;;;7.03;81.39;95458.06;1608422;88;21058;-58
2021/09/06 01:16:05;;;;;;;6.78;5.72;;;;;;;7.04;81.29;95460.22;1583075;89;21014;-61
2021/09/06 01:18:34;;;;;;;11.68;7.08;;;;;;;7.06;81.35;95455.11;1596343;88;21109;-60
2021/09/06 01:21:02;;;;;;;11.28;7.62;;;;;;;7.10;81.44;95453.87;1569139;90;21610;-61
2021/09/06 01:23:31;;;;;;;8.63;7.33;;;;;;;7.07;81.69;95449.22;1592511;88;20999;-60
2021/09/06 01:26:00;;;;;;;13.80;7.72;;;;;;;7.04;82.11;95450.64;1573917;89;20991;-59
2021/09/06 01:28:26;;;;;;;8.85;7.35;;;;;;;7.00;82.40;95448.52;1595253;88;21108;-60
2021/09/06 01:30:53;;;;;;;13.88;7.37;;;;;;;7.02;82.86;95450.25;1632504;86;21613;-61
2021/09/06 01:33:20;;;;;;;9.55;6.83;;;;;;;7.05;82.96;95448.09;1602670;87;21121;-59
2021/09/06 01:35:47;;;;;;;12.73;7.65;;;;;;;7.08;83.04;95452.74;1590566;89;21144;-62
2021/09/06 01:38:14;;;;;;;11.25;7.40;;;;;;;7.09;83.31;95455.84;1601080;88;21554;-60
2021/09/06 01:40:41;;;;;;;10.05;7.60;;;;;;;7.13;83.48;95451.11;1646359;85;21101;-59
2021/09/06 01:43:09;;;;;;;12.50;7.28;;;;;;;7.16;83.35;95459.86;1613143;87;21108;-59
2021/09/06 01:45:37;;;;;;;10.65;7.08;;;;;;;7.15;83.50;95456.94;1649985;86;21053;-60
2021/09/06 01:48:05;;;;;;;11.30;7.12;;;;;;;7.23;83.70;95462.53;1613559;88;21092;-60
2021/09/06 01:50:34;;;;;;;8.03;6.25;;;;;;;7.28;83.49;95455.23;1585103;89;21094;-59
2021/09/06 01:53:00;;;;;;;8.78;6.20;;;;;;;7.30;83.28;95459.70;1610739;88;21181;-60
2021/09/06 01:55:27;;;;;;;11.68;6.83;;;;;;;7.24;83.15;95458.61;1590557;89;21111;-61
2021/09/06 01:57:58;;;;;;;9.35;6.42;;;;;;;7.19;83.24;95455.55;1594957;88;21047;-60
2021/09/06 02:00:26;;;;;;;15.30;7.00;;;;;;;7.15;83.47;95455.58;1569435;89;21181;-59
2021/09/06 02:02:53;;;;;;;8.28;6.22;;;;;;;7.19;83.45;95456.30;1583283;89;21114;-61
2021/09/06 02:05:21;;;;;;;7.17;6.33;;;;;;;7.22;83.43;95453.36;1601223;88;21198;-61
2021/09/06 02:07:51;;;;;;;6.92;6.20;;;;;;;7.21;83.05;95458.64;1639363;86;20982;-61
2021/09/06 02:10:20;;;;;;;7.70;5.87;;;;;;;7.18;83.34;95451.25;1599773;88;20974;-61
2021/09/06 02:12:47;;;;;;;9.70;5.60;;;;;;;7.20;83.13;95456.52;1618085;86;21007;-60
2021/09/06 02:15:15;;;;;;;6.58;5.30;;;;;;;7.20;82.88;95455.15;1602398;88;20986;-60
2021/09/06 02:17:43;;;;;;;7.28;5.55;;;;;;;7.21;82.60;95452.59;1633010;87;21153;-60
2021/09/06 02:20:12;;;;;;;10.48;5.30;;;;;;;7.24;82.47;95455.88;1636326;86;20995;-60
2021/09/06 02:22:40;;;;;;;7.40;6.35;;;;;;;7.30;82.33;95454.23;1604284;88;21053;-60
2021/09/06 02:25:09;;;;;;;8.03;6.17;;;;;;;7.29;82.06;95448.58;1632898;86;21086;-60
2021/09/06 02:27:38;;;;;;;8.78;6.53;;;;;;;7.30;81.89;95458.34;1596709;87;21042;-62
2021/09/06 02:30:19;;;;;;;9.75;6.75;;;;;;;7.25;81.45;95455.27;1631748;86;21172;-60
2021/09/06 02:32:47;;;;;;;10.38;6.58;;;;;;;7.15;81.76;95453.45;1610457;87;21537;-64
2021/09/06 02:35:33;;;;;;;8.58;6.65;;;;;;;7.11;82.11;95447.21;1628578;86;21109;-59
2021/09/06 02:38:01;;;;;;;10.63;7.05;;;;;;;7.08;82.21;95445.91;1604351;88;21018;-59
2021/09/06 02:40:27;;;;;;;10.38;7.22;;;;;;;7.03;82.85;95451.83;1590464;89;21008;-60
2021/09/06 02:42:55;;;;;;;9.78;6.83;;;;;;;7.04;83.10;95450.03;1607510;88;21132;-60
2021/09/06 02:45:22;;;;;;;9.30;6.70;;;;;;;7.06;83.12;95445.54;1641207;86;21026;-60
2021/09/06 02:47:51;;;;;;;7.47;6.20;;;;;;;7.10;83.26;95452.50;1602291;88;22203;-61
2021/09/06 02:50:17;;;;;;;12.13;6.10;;;;;;;7.12;83.20;95455.02;1635274;86;21104;-59
2021/09/06 02:52:45;;;;;;;11.88;7.05;;;;;;;7.12;83.35;95460.50;1595553;88;21188;-61
2021/09/06 02:55:13;;;;;;;10.30;6.85;;;;;;;7.11;83.26;95462.27;1640001;86;21155;-61
2021/09/06 02:57:43;;;;;;;13.13;7.00;;;;;;;7.11;83.58;95462.27;1619069;88;21053;-60
2021/09/06 03:00:12;;;;;;;10.25;6.50;;;;;;;7.12;83.54;95457.77;1580844;89;21054;-59
2021/09/06 03:02:40;;;;;;;7.62;5.62;;;;;;;7.13;83.45;95459.92;1607007;88;21083;-60
2021/09/06 03:05:09;;;;;;;9.30;5.53;;;;;;;7.14;83.50;95460.86;1626683;86;21029;-59
2021/09/06 03:07:37;;;;;;;12.18;5.85;;;;;;;7.19;83.58;95462.38;1595648;88;21820;-60
2021/09/06 03:10:07;;;;;;;10.72;7.28;;;;;;;7.20;83.31;95461.98;1585090;89;21046;-60
2021/09/06 03:12:35;;;;;;;6.53;5.65;;;;;;;7.15;83.45;95463.78;1643830;86;21078;-60
2021/09/06 03:15:03;;;;;;;6.28;5.35;;;;;;;7.17;83.54;95464.76;1611634;88;21030;-59
2021/09/06 03:17:30;;;;;;;7.00;4.97;;;;;;;7.18;83.19;95468.44;1635343;86;21090;-60
2021/09/06 03:19:57;;;;;;;7.90;5.58;;;;;;;7.15;82.92;95467.13;1611405;88;21243;-61
2021/09/06 03:22:24;;;;;;;6.22;4.95;;;;;;;7.17;82.89;95463.39;1596999;87;20986;-59
2021/09/06 03:24:51;;;;;;;8.13;4.83;;;;;;;7.20;82.68;95464.72;1607788;88;21618;-60
2021/09/06 03:27:17;;;;;;;8.18;5.05;;;;;;;7.19;82.68;95465.88;1643965;86;21011;-59
2021/09/06 03:29:44;;;;;;;7.92;5.20;;;;;;;7.26;82.68;95463.08;1601694;88;20970;-60
2021/09/06 03:32:12;;;;;;;6.10;5.50;;;;;;;7.33;82.39;95464.97;1628596;86;21141;-60
2021/09/06 03:34:39;;;;;;;5.72;4.60;;;;;;;7.38;82.20;95468.61;1642057;86;20976;-59
2021/09/06 03:37:07;;;;;;;6.15;5.45;;;;;;;7.41;81.95;95467.22;1602490;88;21000;-60
2021/09/06 03:39:34;;;;;;;10.98;5.47;;;;;;;7.43;81.95;95468.16;1588885;89;21045;-59
2021/09/06 03:42:03;;;;;;;7.62;5.67;;;;;;;7.46;82.12;95464.02;1580274;87;21052;-60
2021/09/06 03:44:31;;;;;;;7.12;5.40;;;;;;;7.54;81.84;95472.31;1593073;88;21455;-60
2021/09/06 03:46:57;;;;;;;7.03;5.70;;;;;;;7.57;81.54;95469.36;1605034;88;21066;-60
2021/09/06 03:49:25;;;;;;;8.08;6.40;;;;;;;7.52;81.54;95464.34;1594409;89;21069;-59
2021/09/06 03:51:52;;;;;;;10.15;5.70;;;;;;;7.45;81.75;95467.94;1602136;88;21030;-60
2021/09/06 03:54:20;;;;;;;9.33;5.67;;;;;;;7.43;81.91;95465.42;1638121;85;21086;-60
2021/09/06 03:56:46;;;;;;;8.20;5.97;;;;;;;7.41;82.03;95472.69;1631749;86;21873;-60
2021/09/06 03:59:14;;;;;;;11.00;6.53;;;;;;;7.41;82.36;95468.58;1641091;86;21118;-61
2021/09/06 04:01:43;;;;;;;10.23;6.05;;;;;;;7.46;82.39;95474.18;1614956;87;21129;-59
2021/09/06 04:04:10;;;;;;;9.30;6.22;;;;;;;7.43;82.40;95471.69;1578593;89;21181;-60
2021/09/06 04:06:37;;;;;;;6.35;5.65;;;;;;;7.46;82.57;95471.44;1606701;88;21469;-62
2021/09/06 04:09:05;;;;;;;9.63;5.70;;;;;;;7.50;82.56;95476.30;1577460;89;21836;-59
2021/09/06 04:11:32;;;;;;;7.30;5.70;;;;;;;7.55;82.47;95476.61;1597097;88;21126;-59
2021/09/06 04:13:59;;;;;;;6.55;5.30;;;;;;;7.57;82.25;95483.84;1644200;86;21032;-59
2021/09/06 04:16:27;;;;;;;6.60;5.80;;;;;;;7.56;81.93;95484.24;1630144;86;21494;-59
2021/09/06 04:18:54;;;;;;;7.42;6.05;;;;;;;7.45;82.13;95478.89;1642134;85;21095;-60
2021/09/06 04:21:21;;;;;;;6.78;5.85;;;;;;;7.50;82.50;95488.02;1602917;87;21955;-59
2021/09/06 04:23:48;;;;;;;6.75;5.95;;;;;;;7.57;82.34;95488.53;1637047;86;21006;-60
2021/09/06 04:26:15;;;;;;;8.95;6.00;;;;;;;7.61;82.29;95491.41;1602616;88;21132;-60
2021/09/06 04:28:44;;;;;;;8.88;5.45;;;;;;;7.65;82.35;95489.98;1582758;89;21122;-60
2021/09/06 04:31:12;;;;;;;9.53;7.50;;;;;;;7.70;82.57;95489.55;1595387;88;21069;-59
2021/09/06 04:33:39;;;;;;;8.63;6.62;;;;;;;7.78;82.42;95482.78;1648126;86;21965;-59
2021/09/06 04:36:06;;;;;;;12.58;6.75;;;;;;;7.80;81.72;95486.67;1615173;87;21132;-59
2021/09/06 04:38:34;;;;;;;7.35;5.67;;;;;;;7.72;81.33;95487.94;1633084;86;21061;-60
2021/09/06 04:41:01;;;;;;;10.70;6.53;;;;;;;7.63;81.45;95489.63;1603741;88;20998;-60
2021/09/06 04:43:29;;;;;;;7.80;6.12;;;;;;;7.61;81.47;95487.89;1630493;86;21585;-60
2021/09/06 04:45:55;;;;;;;14.15;7.60;;;;;;;7.54;81.55;95485.25;1644040;86;21901;-60
2021/09/06 04:48:22;;;;;;;8.10;5.83;;;;;;;7.47;81.92;95488.84;1638666;86;21125;-60
2021/09/06 04:50:51;;;;;;;6.72;5.78;;;;;;;7.44;81.97;95493.77;1602353;88;20996;-60
2021/09/06 04:53:19;;;;;;;8.33;5.95;;;;;;;7.42;81.98;95493.98;1580223;89;37817;-60
2021/09/06 04:55:46;;;;;;;7.42;5.95;;;;;;;7.36;82.05;95497.75;1599391;88;21200;-60
2021/09/06 04:58:13;;;;;;;6.58;5.87;;;;;;;7.27;82.34;95498.05;1632696;86;21166;-59
2021/09/06 05:00:40;;;;;;;12.10;5.90;;;;;;;7.27;82.57;95498.84;1596468;87;21472;-60
2021/09/06 05:03:07;;;;;;;8.30;5.90;;;;;;;7.29;82.59;95500.58;1589775;89;21510;-60
2021/09/06 05:05:35;;;;;;;5.80;5.30;;;;;;;7.29;82.57;95500.58;1594341;88;21050;-60
2021/09/06 05:08:01;;;;;;;8.03;5.92;;;;;;;7.36;82.72;95499.73;1583936;89;21075;-60
2021/09/06 05:10:28;;;;;;;7.33;5.78;;;;;;;7.41;82.42;95502.80;1599879;88;21516;-59
2021/09/06 05:12:55;;;;;;;12.25;6.33;;;;;;;7.47;82.13;95503.11;1640244;86;21101;-59
2021/09/06 05:15:23;;;;;;;7.12;6.40;;;;;;;7.45;82.06;95500.80;1645047;86;21062;-61
2021/09/06 05:17:50;;;;;;;10.23;5.78;;;;;;;7.50;82.21;95500.34;1614275;88;21356;-60
2021/09/06 05:20:17;;;;;;;15.08;6.55;;;;;;;7.59;82.28;95498.48;1576660;89;21149;-60
2021/09/06 05:22:44;;;;;;;9.75;6.35;;;;;;;7.68;82.15;95503.64;1635195;86;21891;-59
2021/09/06 05:25:12;;;;;;;18.95;7.40;;;;;;;7.73;81.83;95494.96;1583918;88;21241;-60
2021/09/06 05:27:38;;;;;;;11.12;5.53;;;;;;;7.80;82.00;95501.73;1573626;89;21710;-61
2021/09/06 05:30:08;;;;;;;6.92;5.87;;;;;;;7.96;81.90;95507.98;1588318;87;21169;-61
2021/09/06 05:32:37;;;;;;;25.12;8.05;;;;;;;8.02;81.05;95500.84;1635720;85;21616;-61
2021/09/06 05:35:06;;;;;;;7.17;5.20;;;;;;;8.03;80.61;95500.45;1625014;86;21200;-60
2021/09/06 05:37:33;;;;;;;15.58;5.87;;;;;;;8.04;80.07;95502.61;1634345;85;21108;-61
2021/09/06 05:40:02;;;;;;;8.55;5.35;;;;;;;8.02;79.96;95500.27;1609315;86;21619;-60
2021/09/06 05:42:30;;;;;;;8.63;6.45;;;;;;;8.01;80.02;95497.34;1629782;86;21089;-60
2021/09/06 05:44:57;;;;;;;6.47;5.75;;;;;;;8.00;79.90;95497.17;1589799;87;21086;-61
2021/09/06 05:47:24;;;;;;;6.37;5.25;;;;;;;7.95;79.68;95496.27;1590722;88;21174;-61
2021/09/06 05:49:51;;;;;;;5.90;5.08;;;;;;;7.91;79.89;95500.98;1600388;87;21081;-61
2021/09/06 05:52:19;;;;;;;8.30;6.05;;;;;;;8.02;79.95;95503.59;1627193;85;21116;-63
2021/09/06 05:54:46;;;;;;;12.65;6.33;;;;;;;8.12;80.22;95495.83;1594181;86;21086;-64
2021/09/06 05:57:15;;;;;;;8.23;6.08;;;;;;;8.28;80.20;95489.93;1571515;89;21248;-63
2021/09/06 05:59:43;;;;;;;8.25;6.25;;;;;;;8.48;79.72;95499.63;1589212;87;21716;-58
2021/09/06 06:02:10;;;;;;;10.98;5.28;;;;;;;8.54;78.89;95502.08;1572454;89;21006;-57
2021/09/06 06:04:38;;;;;;;9.93;6.37;;;;;;;8.54;78.74;95499.33;1604888;86;21426;-58
2021/09/06 06:07:07;;;;;;;7.33;5.97;;;;;;;8.52;78.68;95498.39;1573275;89;21052;-59
2021/09/06 06:09:38;;;;;;;12.47;6.67;;;;;;;8.53;78.71;95506.02;1575942;89;21033;-60
2021/09/06 06:12:08;;;;;;;10.20;5.85;;;;;;;8.55;78.72;95509.91;1621949;85;21518;-58
2021/09/06 06:14:35;;;;;;;8.00;5.22;;;;;;;8.56;78.54;95507.92;1625125;86;21400;-60
2021/09/06 06:17:03;;;;;;;14.25;6.40;;;;;;;8.61;78.45;95510.97;1594697;87;21085;-57
2021/09/06 06:19:32;;;;;;;10.95;6.90;;;;;;;8.64;78.27;95512.13;1566840;89;21098;-62
2021/09/06 06:22:18;;;;;;;11.20;7.00;;;;;;;8.67;78.50;95505.22;1633696;86;21057;-57
2021/09/06 06:24:50;;;;;;;12.95;6.53;;;;;;;8.83;78.78;95501.20;1596004;87;26436;-57
2021/09/06 06:27:22;;;;;;;9.45;6.75;;;;;;;8.96;78.84;95502.95;1557414;88;21133;-58
2021/09/06 06:29:50;;;;;;;20.95;8.18;;;;;;;9.13;78.33;95499.13;1593995;86;22159;-60
2021/09/06 06:32:17;;;;;;;7.62;6.37;;;;;;;9.22;77.75;95500.72;1628382;85;21180;-59
2021/09/06 06:34:48;;;;;;;69.95;40.28;;;;;;;9.30;77.70;95499.99;1602172;87;21112;-59
2021/09/06 06:37:15;;;;;;;11.20;7.87;;;;;;;9.43;77.15;95495.44;1568598;88;21198;-59
2021/09/06 06:39:43;;;;;;;12.90;7.12;;;;;;;9.51;76.86;95504.50;1594834;87;21251;-60
2021/09/06 06:42:10;;;;;;;14.03;6.50;;;;;;;9.59;76.62;95502.39;1623847;85;21151;-59
2021/09/06 06:44:39;;;;;;;7.05;6.35;;;;;;;9.67;76.49;95503.79;1583059;88;21078;-57
2021/09/06 06:47:07;;;;;;;12.65;6.10;;;;;;;9.74;75.87;95501.68;1629279;86;21077;-61
2021/09/06 06:49:33;;;;;;;9.30;5.87;;;;;;;9.78;75.84;95503.75;1626223;86;21111;-57
2021/09/06 06:52:01;;;;;;;7.30;5.62;;;;;;;9.89;75.79;95508.44;1605375;87;21228;-62
2021/09/06 06:54:30;;;;;;;20.43;7.50;;;;;;;9.99;75.46;95502.55;1621059;85;21539;-59
2021/09/06 06:57:06;;;;;;;13.75;7.35;;;;;;;10.11;75.06;95501.91;1591578;87;21247;-63
2021/09/06 06:59:44;;;;;;;15.70;6.67;;;;;;;10.16;74.76;95509.06;1607999;86;21047;-65
2021/09/06 07:02:19;;;;;;;12.43;6.55;;;;;;;10.19;74.53;95501.33;1612319;87;21102;-63
2021/09/06 07:04:55;;;;;;;12.63;8.00;;;;;;;10.20;74.27;95499.38;1628661;85;21392;-61
2021/09/06 07:07:25;;;;;;;9.28;6.30;;;;;;;10.21;74.26;95498.95;1585120;87;21052;-59
2021/09/06 07:09:52;;;;;;;12.55;7.28;;;;;;;10.25;74.42;95499.64;1588077;87;21146;-58
2021/09/06 07:12:21;;;;;;;10.60;7.55;;;;;;;10.30;74.56;95492.84;1623605;86;21109;-59
2021/09/06 07:14:54;;;;;;;9.95;7.37;;;;;;;10.37;74.62;95481.70;1596743;88;21149;-63
2021/09/06 07:17:21;;;;;;;13.93;7.40;;;;;;;10.51;74.54;95489.64;1585887;88;21081;-61
2021/09/06 07:19:49;;;;;;;14.55;7.50;;;;;;;10.65;73.82;95489.28;1607107;86;21126;-62
2021/09/06 07:22:19;;;;;;;9.65;6.35;;;;;;;10.73;73.43;95492.05;1614534;85;21124;-60
2021/09/06 07:24:46;;;;;;;10.65;5.75;;;;;;;10.79;73.30;95497.37;1588630;87;21121;-62
2021/09/06 07:27:14;;;;;;;22.27;6.67;;;;;;;10.85;73.24;95488.80;1614598;86;21739;-66
2021/09/06 07:29:42;;;;;;;11.80;6.53;;;;;;;10.94;73.14;95488.95;1616814;86;21119;-63
2021/09/06 07:32:09;;;;;;;8.33;5.83;;;;;;;11.11;72.84;95486.36;1584421;87;21085;-67
2021/09/06 07:34:38;;;;;;;11.93;5.45;;;;;;;11.23;72.10;95478.77;1578964;89;21078;-59
2021/09/06 07:37:06;;;;;;;11.63;6.47;;;;;;;11.30;71.63;95479.95;1569497;88;21021;-58
2021/09/06 07:39:34;;;;;;;8.80;6.15;;;;;;;11.45;71.68;95478.38;1600523;88;22362;-60
2021/09/06 07:42:02;;;;;;;9.50;5.60;;;;;;;11.61;70.88;95478.36;1566698;89;21094;-61
2021/09/06 07:44:30;;;;;;;11.30;6.05;;;;;;;11.73;71.19;95472.72;1608888;87;21485;-60
2021/09/06 07:46:58;;;;;;;17.90;5.45;;;;;;;11.90;70.71;95466.69;1602642;87;21234;-61
2021/09/06 07:49:26;;;;;;;15.10;5.35;;;;;;;12.11;70.29;95474.95;1553025;88;21103;-60
2021/09/06 07:51:59;;;;;;;15.48;4.90;;;;;;;12.28;69.42;95472.27;1619219;85;21245;-60
2021/09/06 07:54:30;;;;;;;10.93;5.33;;;;;;;12.44;69.18;95471.55;1589442;88;21169;-64
2021/09/06 07:56:58;;;;;;;16.48;5.35;;;;;;;12.60;68.69;95470.07;1560832;89;21093;-60
2021/09/06 07:59:27;;;;;;;7.17;4.65;;;;;;;12.77;68.30;95464.59;1570919;88;21447;-63
2021/09/06 08:01:55;;;;;;;7.83;4.35;;;;;;;12.97;67.57;95466.53;1590350;87;21125;-64
2021/09/06 08:04:23;;;;;;;5.12;4.00;;;;;;;13.15;66.69;95464.73;1568448;89;22503;-62
2021/09/06 08:06:51;;;;;;;13.10;4.62;;;;;;;13.31;65.95;95460.44;1580011;87;21054;-61
2021/09/06 08:09:20;;;;;;;7.67;4.50;;;;;;;13.47;65.85;95459.48;1612952;86;21207;-60
2021/09/06 08:11:48;;;;;;;13.40;5.08;;;;;;;13.62;65.09;95451.61;1626030;86;21017;-60
2021/09/06 08:14:17;;;;;;;5.03;3.80;;;;;;;13.80;64.83;95453.75;1636271;85;21059;-59
2021/09/06 08:16:45;;;;;;;9.35;4.17;;;;;;;14.00;64.11;95451.43;1589565;87;21146;-60
2021/09/06 08:19:12;;;;;;;9.78;4.33;;;;;;;14.14;63.06;95448.89;1585121;88;21083;-59
2021/09/06 08:21:39;;;;;;;4.50;3.47;;;;;;;14.30;62.41;95447.33;1593724;87;22129;-61
2021/09/06 08:24:07;;;;;;;5.12;3.12;;;;;;;14.46;61.52;95442.31;1592653;88;21448;-61
2021/09/06 08:26:35;;;;;;;5.28;3.50;;;;;;;14.65;61.23;95445.31;1578253;87;21139;-61
2021/09/06 08:29:03;;;;;;;4.22;3.37;;;;;;;14.80;60.32;95446.30;1575575;88;21090;-61
2021/09/06 08:31:30;;;;;;;3.77;2.62;;;;;;;14.94;59.56;95447.11;1574232;89;21074;-61
2021/09/06 08:33:58;;;;;;;7.75;4.90;;;;;;;15.02;57.99;95439.28;1580702;88;22327;-60
2021/09/06 08:36:26;;;;;;;6.45;4.15;;;;;;;15.02;58.27;95435.87;1590745;89;21128;-60
2021/09/06 08:38:52;;;;;;;9.65;4.15;;;;;;;15.08;59.02;95436.83;1565466;89;21077;-62
2021/09/06 08:41:20;;;;;;;4.75;3.50;;;;;;;15.22;58.93;95435.45;1601161;86;21318;-59
2021/09/06 08:43:47;;;;;;;7.90;4.72;;;;;;;15.36;58.13;95441.83;1585627;88;21064;-62
2021/09/06 08:46:16;;;;;;;4.00;3.00;;;;;;;15.48;57.39;95434.75;1590688;88;21077;-60
2021/09/06 08:48:44;;;;;;;5.15;3.62;;;;;;;15.61;57.24;95442.91;1603886;86;21189;-60
2021/09/06 08:51:11;;;;;;;19.23;13.10;;;;;;;15.71;56.75;95436.14;1647564;85;21349;-61
2021/09/06 08:53:39;;;;;;;6.80;5.05;;;;;;;15.78;56.05;95433.82;1653248;85;21147;-61
2021/09/06 08:56:07;;;;;;;5.90;4.20;;;;;;;15.86;55.34;95430.88;1634942;84;21054;-63
2021/09/06 08:58:36;;;;;;;4.80;3.65;;;;;;;15.96;55.96;95433.02;1646573;85;21110;-61
2021/09/06 09:01:04;;;;;;;8.10;4.08;;;;;;;16.06;54.38;95426.98;1644983;85;21180;-64
2021/09/06 09:03:49;;;;;;;4.78;4.15;;;;;;;16.12;54.52;95427.88;1639025;84;21140;-63
2021/09/06 09:06:19;;;;;;;15.15;4.15;;;;;;;16.22;54.30;95430.80;1647766;85;21202;-63
2021/09/06 09:08:47;;;;;;;5.40;3.77;;;;;;;16.30;54.05;95424.45;1648894;85;21025;-66
2021/09/06 09:11:18;;;;;;;5.12;3.40;;;;;;;16.41;53.36;95426.77;1641992;86;21189;-68
2021/09/06 09:13:47;;;;;;;9.43;4.08;;;;;;;16.52;53.81;95422.88;1647499;85;21280;-63
2021/09/06 09:16:26;;;;;;;4.40;3.77;;;;;;;16.61;53.67;95423.61;1646472;85;21181;-64
2021/09/06 09:19:11;;;;;;;7.28;3.85;;;;;;;16.75;53.85;95415.20;1649762;85;21921;-62
2021/09/06 09:22:00;;;;;;;13.55;6.78;;;;;;;16.90;53.87;95426.55;1576317;85;21388;-61
2021/09/06 09:24:29;;;;;;;5.40;4.20;;;;;;;17.03;53.75;95424.92;1640698;85;21105;-61
2021/09/06 09:27:16;;;;;;;4.92;3.95;;;;;;;17.13;53.25;95421.62;1649608;86;21845;-64
2021/09/06 09:29:56;;;;;;;7.05;4.17;;;;;;;17.22;51.33;95420.19;1642477;85;21168;-59
2021/09/06 09:32:37;;;;;;;12.28;4.58;;;;;;;17.28;50.34;95414.75;1637363;85;21203;-58
2021/09/06 09:35:12;;;;;;;5.12;4.00;;;;;;;17.37;49.97;95414.70;1650181;86;21544;-60
2021/09/06 09:37:41;;;;;;;5.72;3.80;;;;;;;17.52;50.72;95414.13;1658097;85;21092;-60
2021/09/06 09:40:12;;;;;;;5.15;4.05;;;;;;;17.75;51.33;95413.30;1661592;85;21700;-61
2021/09/06 09:42:49;;;;;;;7.37;4.20;;;;;;;17.99;49.30;95398.72;1621308;85;21124;-62
2021/09/06 09:45:25;;;;;;;6.28;3.47;;;;;;;18.19;48.56;95403.14;1636828;86;21165;-64
2021/09/06 09:48:09;;;;;;;8.75;4.53;;;;;;;18.41;49.08;95399.97;1611085;86;21613;-61
2021/09/06 09:50:41;;;;;;;6.05;4.28;;;;;;;18.66;48.03;95395.95;1622570;85;21089;-60
2021/09/06 09:53:08;;;;;;;19.05;16.60;;;;;;;18.91;47.75;95393.16;1647862;86;22268;-63
2021/09/06 09:55:36;;;;;;;10.23;6.10;;;;;;;19.14;47.61;95394.38;1652770;85;21120;-63
2021/09/06 09:58:04;;;;;;;8.98;4.30;;;;;;;19.36;47.14;95393.30;1593422;88;21166;-63
2021/09/06 10:00:32;;;;;;;5.33;4.00;;;;;;;19.65;46.73;95393.77;1608075;87;21084;-62
2021/09/06 10:03:03;;;;;;;5.58;4.08;;;;;;;20.04;45.44;95392.98;1596195;88;21038;-61
2021/09/06 10:05:34;;;;;;;7.12;3.72;;;;;;;20.35;44.62;95388.84;1582420;87;21165;-61
2021/09/06 10:08:07;;;;;;;9.33;3.83;;;;;;;20.67;44.36;95397.34;1600077;88;21199;-62
2021/09/06 10:10:38;;;;;;;5.62;4.10;;;;;;;21.07;42.51;95392.97;1566475;90;21185;-64
2021/09/06 10:13:14;;;;;;;4.42;3.67;;;;;;;21.46;41.13;95393.30;1585497;88;22174;-62
2021/09/06 10:15:58;;;;;;;8.50;3.80;;;;;;;21.81;40.02;95387.38;1584840;88;21108;-64
2021/09/06 10:18:40;;;;;;;10.23;4.08;;;;;;;22.15;39.94;95384.14;1593046;88;21110;-63
2021/09/06 10:21:15;;;;;;;4.37;3.43;;;;;;;22.51;39.68;95385.34;1586619;88;21102;-62
2021/09/06 10:23:47;;;;;;;6.58;3.70;;;;;;;22.93;39.59;95386.50;1590832;88;21185;-64
2021/09/06 10:26:19;;;;;;;6.10;3.77;;;;;;;23.37;38.75;95382.87;1596852;88;21088;-62
2021/09/06 10:28:49;;;;;;;9.18;3.60;;;;;;;23.88;38.62;95381.54;1581668;89;21589;-63
2021/09/06 10:31:21;;;;;;;5.80;3.50;;;;;;;24.36;37.99;95380.38;1599048;89;21125;-63
2021/09/06 10:34:00;;;;;;;6.50;3.40;;;;;;;24.69;35.99;95378.73;1607819;88;21077;-65
2021/09/06 10:36:31;;;;;;;5.17;3.52;;;;;;;24.93;35.34;95381.61;1603251;88;21218;-68
2021/09/06 10:39:08;;;;;;;4.53;4.03;;;;;;;25.17;34.59;95383.81;1619549;88;21058;-62
2021/09/06 10:41:54;;;;;;;13.80;8.68;;;;;;;25.41;33.90;95381.02;1619233;88;21118;-62
2021/09/06 10:44:24;;;;;;;6.62;3.65;;;;;;;25.74;35.65;95386.92;1597645;89;21064;-67
2021/09/06 10:46:57;;;;;;;5.70;3.80;;;;;;;26.09;34.69;95381.89;1579705;89;21101;-61
2021/09/06 10:49:26;;;;;;;5.80;3.00;;;;;;;26.39;34.59;95373.38;1598233;88;21742;-61
2021/09/06 10:51:56;;;;;;;9.65;4.12;;;;;;;26.74;33.90;95374.53;1597567;89;21118;-62
2021/09/06 10:54:23;;;;;;;4.75;3.20;;;;;;;26.89;34.54;95376.85;1600182;88;21100;-65
2021/09/06 10:56:51;;;;;;;3.47;2.45;;;;;;;26.96;32.95;95379.80;1605137;88;21497;-61
2021/09/06 10:59:25;;;;;;;7.45;3.20;;;;;;;26.98;33.76;95377.84;1623498;88;21070;-63
2021/09/06 11:01:55;;;;;;;8.08;2.75;;;;;;;27.18;33.39;95387.92;1617762;88;21712;-61
2021/09/06 11:04:24;;;;;;;4.45;3.60;;;;;;;27.27;33.49;95381.87;1581395;89;21134;-60
2021/09/06 11:07:06;;;;;;;4.12;2.62;;;;;;;27.40;32.67;95377.62;1594575;88;21084;-62
2021/09/06 11:09:36;;;;;;;5.87;3.22;;;;;;;27.54;33.20;95376.97;1607801;88;21054;-62
2021/09/06 11:12:10;;;;;;;8.35;4.22;;;;;;;27.97;33.32;95381.78;1624164;88;21078;-63
2021/09/06 11:14:43;;;;;;;5.35;2.80;;;;;;;28.30;31.81;95384.55;1597615;88;21657;-64
2021/09/06 11:17:22;;;;;;;7.80;3.33;;;;;;;28.43;30.76;95378.22;1573349;89;21089;-60
2021/09/06 11:19:51;;;;;;;5.45;2.58;;;;;;;28.35;31.42;95383.05;1602442;87;21603;-59
2021/09/06 11:22:21;;;;;;;4.37;2.80;;;;;;;28.41;31.50;95380.09;1565328;89;21097;-59
2021/09/06 11:24:53;;;;;;;4.22;2.25;;;;;;;28.57;30.94;95383.20;1600518;88;21248;-61
2021/09/06 11:27:33;;;;;;;6.47;3.77;;;;;;;28.70;30.72;95380.30;1587459;88;21166;-60
2021/09/06 11:30:07;;;;;;;;;;;;;;;28.68;31.00;95382.28;1577095;89;21029;-62
2021/09/06 11:32:47;;;;;;;3.50;2.65;;;;;;;28.66;30.47;95381.30;1586939;89;20184;-64
2021/09/06 11:35:15;;;;;;;3.10;2.45;;;;;;;28.87;30.68;95377.19;1570869;88;21152;-61
2021/09/06 11:37:44;;;;;;;6.28;3.22;;;;;;;29.10;30.75;95381.69;1592399;88;21128;-60
2021/09/06 11:40:11;;;;;;;4.28;2.98;;;;;;;29.35;30.72;95385.66;1581759;88;21320;-60
2021/09/06 11:42:38;;;;;;;5.47;2.62;;;;;;;29.56;29.24;95383.58;1588960;89;21199;-63
2021/09/06 11:45:07;;;;;;;3.42;2.67;;;;;;;29.61;29.28;95388.34;1589119;88;21138;-61
2021/09/06 11:47:38;;;;;;;6.75;5.75;;;;;;;29.67;28.66;95381.87;1581914;88;21084;-60